Time;durP1;ratioP1;P1;durP2;ratioP2;P2;SDS_P1;SDS_P2;PMS_P1;PMS_P2;Temp;Humidity;BMP_temperature;BMP_pressure;BME280_temperature;BME280_humidity;BME280_pressure;Samples;Min_cycle;Max_cycle;Signal;HPM_P1;HPM_P2
2021/12/21 00:00:48;;;;;;;21.77;9.80;;;;;;;0.33;79.71;101267.66;5044476;28;20405;-79
2021/12/21 00:03:14;;;;;;;22.38;11.18;;;;;;;0.25;80.24;101265.78;5049456;28;20923;-79
2021/12/21 00:05:40;;;;;;;23.52;10.13;;;;;;;0.28;80.17;101269.94;5038557;28;20415;-80
2021/12/21 00:08:11;;;;;;;23.42;10.63;;;;;;;0.26;80.09;101267.44;5043372;28;20390;-79
2021/12/21 00:10:37;;;;;;;22.63;10.85;;;;;;;0.23;80.80;101265.06;5050215;28;20479;-79
2021/12/21 00:13:22;;;;;;;20.52;10.43;;;;;;;0.25;80.46;101262.25;5036988;28;20430;-79
2021/12/21 00:15:59;;;;;;;23.25;10.30;;;;;;;0.15;80.72;101266.88;5045440;28;20397;-79
2021/12/21 00:20:59;;;;;;;18.25;9.70;;;;;;;0.24;80.25;101268.56;5048685;28;20486;-79
2021/12/21 00:26:12;;;;;;;24.05;11.23;;;;;;;0.16;80.22;101274.72;5043392;28;20481;-79
2021/12/21 00:29:36;;;;;;;19.10;9.90;;;;;;;0.11;80.33;101268.16;5035070;28;20403;-79
2021/12/21 00:32:23;;;;;;;24.38;10.43;;;;;;;0.15;80.44;101269.53;4908179;29;21019;-79
2021/12/21 00:38:16;;;;;;;21.85;9.23;;;;;;;0.15;80.54;101265.03;4947945;28;20443;-79
2021/12/21 00:40:44;;;;;;;20.42;9.85;;;;;;;0.08;80.25;101256.00;4940016;28;20414;-79
2021/12/21 00:46:30;;;;;;;24.15;9.57;;;;;;;0.11;80.72;101247.69;5027722;28;20439;-79
2021/12/21 00:52:20;;;;;;;19.85;9.10;;;;;;;0.00;80.63;101245.31;5041749;28;20471;-79
2021/12/21 00:55:56;;;;;;;25.75;10.50;;;;;;;0.04;80.88;101240.47;5037835;28;20454;-79
2021/12/21 00:58:32;;;;;;;25.20;9.65;;;;;;;0.09;80.57;101235.53;4958390;28;20476;-79
2021/12/21 01:04:02;;;;;;;;;;;;;;;;;;;;;
2021/12/21 01:09:53;;;;;;;21.50;9.73;;;;;;;0.15;80.46;101233.06;5033962;28;20472;-79
2021/12/21 01:12:30;;;;;;;26.65;10.93;;;;;;;0.08;80.42;101226.69;5034218;28;20481;-79
2021/12/21 01:18:51;;;;;;;23.27;9.30;;;;;;;0.08;80.00;101233.84;5022665;28;20907;-79
2021/12/21 01:21:20;;;;;;;24.65;9.80;;;;;;;-0.05;80.46;101228.94;5034315;28;20460;-79
2021/12/21 01:26:59;;;;;;;20.88;9.38;;;;;;;-0.13;80.64;101228.88;5015262;28;20388;-78
2021/12/21 01:29:46;;;;;;;23.70;9.32;;;;;;;-0.07;80.87;101231.75;5043905;28;20453;-79
2021/12/21 01:32:26;;;;;;;22.40;9.30;;;;;;;-0.01;80.30;101228.47;5048076;28;20640;-78
2021/12/21 01:37:55;;;;;;;20.13;8.87;;;;;;;-0.10;80.45;101234.72;5048262;28;20400;-79
2021/12/21 01:40:27;;;;;;;19.17;9.27;;;;;;;-0.05;80.33;101236.94;5032901;28;20428;-78
2021/12/21 01:55:24;;;;;;;18.42;9.88;;;;;;;-0.19;80.86;101233.00;4965996;28;20439;-79
2021/12/21 01:58:42;;;;;;;18.35;8.30;;;;;;;-0.19;80.17;101233.00;4972998;28;20427;-79
2021/12/21 02:01:25;;;;;;;20.20;8.50;;;;;;;-0.19;80.61;101232.19;4940144;29;20524;-79
2021/12/21 02:04:41;;;;;;;18.67;8.60;;;;;;;-0.19;80.96;101240.16;4938292;28;20475;-79
2021/12/21 02:10:09;;;;;;;22.25;8.68;;;;;;;-0.10;80.15;101225.94;4933450;29;20813;-79
2021/12/21 02:12:39;;;;;;;18.15;7.80;;;;;;;-0.13;79.96;101232.38;4946541;29;20405;-79
2021/12/21 02:15:10;;;;;;;19.52;8.90;;;;;;;-0.19;80.63;101222.34;4938574;29;20944;-79
2021/12/21 02:22:04;;;;;;;;;;;;;;;;;;;;;
2021/12/21 02:24:39;;;;;;;21.48;8.27;;;;;;;-0.16;80.24;101205.22;4985986;28;20417;-79
2021/12/21 02:30:52;;;;;;;20.60;8.25;;;;;;;-0.26;80.14;101213.31;4971813;28;20535;-79
2021/12/21 02:34:17;;;;;;;17.77;7.72;;;;;;;-0.27;80.68;101216.16;4909068;28;20412;-79
2021/12/21 02:40:55;;;;;;;15.45;7.95;;;;;;;-0.28;80.21;101220.66;5025543;28;20484;-79
2021/12/21 02:43:59;;;;;;;20.27;7.65;;;;;;;-0.25;80.19;101219.50;5034612;28;20946;-79
2021/12/21 02:49:49;;;;;;;16.87;8.27;;;;;;;-0.33;80.22;101216.78;5022407;28;20397;-79
2021/12/21 02:52:14;;;;;;;16.45;7.28;;;;;;;-0.32;80.60;101216.63;5048107;28;20422;-79
2021/12/21 02:54:40;;;;;;;18.03;8.10;;;;;;;-0.35;80.52;101210.75;5047725;28;20489;-79
2021/12/21 02:57:05;;;;;;;20.55;7.93;;;;;;;-0.35;80.79;101216.94;5046626;28;20413;-80
2021/12/21 02:59:31;;;;;;;20.23;8.13;;;;;;;-0.38;80.03;101217.25;5046428;28;20397;-80
2021/12/21 03:01:56;;;;;;;16.30;7.43;;;;;;;-0.54;80.58;101211.81;5034790;28;20480;-80
2021/12/21 03:04:21;;;;;;;17.83;7.60;;;;;;;-0.64;80.95;101217.22;5045451;28;20393;-79
2021/12/21 03:14:34;;;;;;;20.15;7.20;;;;;;;-0.65;80.99;101210.22;5035725;28;20389;-80
2021/12/21 03:16:59;;;;;;;20.40;7.87;;;;;;;-0.72;81.61;101203.00;5056524;28;20393;-80
2021/12/21 03:19:25;;;;;;;18.30;7.47;;;;;;;-0.75;81.78;101201.47;5037853;28;20395;-80
2021/12/21 03:21:50;;;;;;;18.33;7.72;;;;;;;-0.74;81.30;101200.50;5047461;28;20417;-80
2021/12/21 03:24:15;;;;;;;20.97;7.77;;;;;;;-0.75;81.48;101196.16;5045551;28;20402;-80
2021/12/21 03:26:41;;;;;;;18.13;7.33;;;;;;;-0.79;81.72;101193.97;5035794;28;20749;-80
2021/12/21 03:29:06;;;;;;;14.20;7.10;;;;;;;-0.78;81.27;101200.94;5038774;28;20574;-80
2021/12/21 03:31:32;;;;;;;16.67;7.23;;;;;;;-0.82;81.63;101194.25;5044894;28;20503;-80
2021/12/21 03:33:58;;;;;;;19.38;7.70;;;;;;;-0.82;81.94;101195.09;5036851;28;20478;-80
2021/12/21 03:36:23;;;;;;;16.83;8.07;;;;;;;-0.85;81.90;101200.72;5043515;28;20490;-80
2021/12/21 03:39:05;;;;;;;18.20;6.93;;;;;;;-0.85;81.50;101200.72;5031056;28;20407;-80
2021/12/21 03:41:31;;;;;;;17.23;7.50;;;;;;;-0.85;81.88;101203.38;5047153;28;20535;-79
2021/12/21 03:44:00;;;;;;;14.43;7.23;;;;;;;-0.96;81.44;101197.47;5034063;28;20401;-80
2021/12/21 03:46:25;;;;;;;21.50;7.82;;;;;;;-1.03;82.36;101191.94;5041820;28;20874;-80
2021/12/21 03:48:51;;;;;;;13.48;8.00;;;;;;;-1.07;82.29;101195.88;5040472;28;20431;-80
2021/12/21 03:51:19;;;;;;;18.05;7.47;;;;;;;-1.06;82.04;101189.56;5030266;28;20414;-80
2021/12/21 03:53:46;;;;;;;15.83;7.53;;;;;;;-1.05;82.14;101189.41;5031146;28;20404;-80
2021/12/21 03:58:40;;;;;;;18.15;7.43;;;;;;;-1.00;82.16;101180.13;5038228;28;20441;-81
2021/12/21 04:01:05;;;;;;;22.38;7.63;;;;;;;-1.05;81.74;101184.09;5050673;28;20408;-80
2021/12/21 04:03:31;;;;;;;18.03;8.00;;;;;;;-1.09;81.66;101179.25;5033580;28;20940;-80
2021/12/21 04:05:56;;;;;;;15.05;7.35;;;;;;;-1.17;82.09;101174.69;5044188;28;20774;-80
2021/12/21 04:08:22;;;;;;;15.30;7.63;;;;;;;-1.14;82.19;101177.03;5042686;28;20422;-80
2021/12/21 04:10:47;;;;;;;16.77;8.30;;;;;;;-1.11;81.98;101173.22;5040732;28;20424;-80
2021/12/21 04:13:12;;;;;;;13.67;7.13;;;;;;;-1.07;81.79;101178.09;5037015;28;20391;-80
2021/12/21 04:15:43;;;;;;;14.27;7.17;;;;;;;-1.13;81.52;101176.06;5047557;28;20486;-80
2021/12/21 04:18:11;;;;;;;17.50;8.02;;;;;;;-1.15;82.07;101174.50;5044876;28;20461;-80
2021/12/21 04:20:36;;;;;;;18.60;7.68;;;;;;;-1.20;82.41;101172.31;5039041;28;20409;-80
2021/12/21 04:23:03;;;;;;;17.03;7.43;;;;;;;-1.19;82.25;101175.81;5049026;28;20419;-80
2021/12/21 04:25:28;;;;;;;19.30;8.55;;;;;;;-1.23;82.67;101169.97;5034272;28;20411;-81
2021/12/21 04:27:54;;;;;;;15.60;7.93;;;;;;;-1.17;82.33;101176.50;5037129;28;20759;-80
2021/12/21 04:30:20;;;;;;;23.90;8.43;;;;;;;-1.19;81.94;101173.16;5047217;28;20915;-80
2021/12/21 04:32:45;;;;;;;15.40;7.33;;;;;;;-1.11;82.16;101179.38;5050924;28;20397;-80
2021/12/21 04:35:10;;;;;;;16.40;7.97;;;;;;;-1.11;81.69;101176.72;5033117;28;20627;-80
2021/12/21 04:37:42;;;;;;;17.57;7.30;;;;;;;-1.13;82.19;101177.88;5033628;28;20406;-80
2021/12/21 04:40:13;;;;;;;18.47;8.07;;;;;;;-1.13;81.85;101175.22;5034557;28;20427;-80
2021/12/21 04:42:38;;;;;;;14.48;7.60;;;;;;;-1.12;81.84;101169.72;5049935;28;21004;-81
2021/12/21 04:45:04;;;;;;;15.60;8.27;;;;;;;-1.11;81.41;101182.03;5033143;28;20494;-81
2021/12/21 04:47:29;;;;;;;14.82;7.13;;;;;;;-1.11;81.64;101179.38;5043819;28;20386;-81
2021/12/21 04:49:55;;;;;;;16.77;7.45;;;;;;;-1.06;81.85;101173.63;5043296;28;20483;-81
2021/12/21 04:52:20;;;;;;;21.27;8.13;;;;;;;-0.97;81.57;101174.50;5048543;28;20452;-80
2021/12/21 04:54:45;;;;;;;15.27;7.40;;;;;;;-0.97;81.12;101174.50;5048499;28;20455;-81
2021/12/21 04:57:11;;;;;;;20.97;8.20;;;;;;;-1.09;81.91;101172.06;5045032;28;20945;-80
2021/12/21 04:59:36;;;;;;;15.93;8.50;;;;;;;-1.09;81.49;101173.91;5034803;28;20399;-81
2021/12/21 05:02:01;;;;;;;18.30;8.93;;;;;;;-1.07;81.76;101180.75;5033193;28;20431;-80
2021/12/21 05:04:27;;;;;;;20.00;8.70;;;;;;;-1.02;81.82;101174.97;5041363;28;20465;-81
2021/12/21 05:06:52;;;;;;;21.00;9.70;;;;;;;-1.07;81.58;101172.78;5035402;28;20453;-81
2021/12/21 05:09:25;;;;;;;19.47;10.80;;;;;;;-0.97;81.20;101167.38;5039287;28;20409;-80
2021/12/21 05:11:51;;;;;;;21.80;11.30;;;;;;;-1.14;81.61;101163.72;5040789;28;20492;-80
2021/12/21 05:14:16;;;;;;;20.92;9.40;;;;;;;-1.08;81.58;101165.78;5038961;28;20463;-81
2021/12/21 05:16:41;;;;;;;16.30;8.77;;;;;;;-1.11;81.91;101151.94;5037208;28;20395;-81
2021/12/21 05:19:07;;;;;;;18.43;8.27;;;;;;;-1.14;82.00;101160.22;5037791;28;20890;-81
2021/12/21 05:21:32;;;;;;;17.43;8.33;;;;;;;-1.11;81.64;101163.41;5042443;28;20409;-81
2021/12/21 05:23:58;;;;;;;17.53;8.57;;;;;;;-1.00;81.60;101156.19;5049609;28;20406;-81
2021/12/21 05:26:23;;;;;;;16.52;8.20;;;;;;;-1.06;80.96;101150.53;5046778;28;20395;-81
2021/12/21 05:28:48;;;;;;;17.13;8.50;;;;;;;-1.20;81.67;101158.19;5038034;28;20416;-81
2021/12/21 05:31:14;;;;;;;18.67;8.98;;;;;;;-1.18;81.68;101150.88;5035296;28;20411;-81
2021/12/21 05:33:39;;;;;;;20.53;8.70;;;;;;;-1.29;82.14;101151.13;5038079;28;20400;-81
2021/12/21 05:36:05;;;;;;;16.17;8.30;;;;;;;-1.29;82.21;101148.47;5035403;28;20411;-81
2021/12/21 05:38:33;;;;;;;16.97;8.53;;;;;;;-1.32;82.04;101154.94;5046400;28;20495;-81
2021/12/21 05:41:02;;;;;;;16.80;8.75;;;;;;;-1.38;82.24;101154.69;5037341;28;20407;-81
2021/12/21 05:43:28;;;;;;;19.02;9.23;;;;;;;-1.38;81.93;101144.88;5037637;28;20423;-80
2021/12/21 05:45:53;;;;;;;21.58;10.48;;;;;;;-1.36;82.10;101145.56;5045893;28;20435;-82
2021/12/21 05:48:19;;;;;;;20.27;8.70;;;;;;;-1.37;82.59;101146.56;5046217;28;20406;-80
2021/12/21 05:50:44;;;;;;;21.05;9.70;;;;;;;-1.34;82.35;101148.91;5039900;28;20406;-83
2021/12/21 05:53:10;;;;;;;23.80;9.73;;;;;;;-1.34;81.83;101146.25;5045786;28;20419;-80
2021/12/21 05:55:35;;;;;;;20.87;9.90;;;;;;;-1.33;82.12;101155.06;5035161;28;20403;-81
2021/12/21 05:58:01;;;;;;;21.03;9.93;;;;;;;-1.39;82.30;101147.69;5038070;28;20438;-80
2021/12/21 06:00:31;;;;;;;25.57;9.80;;;;;;;-1.41;82.21;101160.28;5047947;28;20736;-82
2021/12/21 06:02:57;;;;;;;22.70;9.07;;;;;;;-1.40;81.96;101157.50;5041290;28;20827;-79
2021/12/21 06:05:23;;;;;;;15.43;8.13;;;;;;;-1.41;82.02;101161.13;5032469;28;20403;-81
2021/12/21 06:07:51;;;;;;;15.95;8.63;;;;;;;-1.36;81.92;101163.34;5035225;28;20411;-80
2021/12/21 06:10:23;;;;;;;21.50;9.43;;;;;;;-1.42;82.24;101163.94;5039875;28;20482;-82
2021/12/21 06:26:03;;;;;;;17.00;8.82;;;;;;;-1.25;82.04;101179.91;5038609;28;20470;-81
2021/12/21 06:28:28;;;;;;;21.27;9.57;;;;;;;-1.15;81.10;101179.81;5043800;28;20815;-81
2021/12/21 06:30:54;;;;;;;19.00;9.30;;;;;;;-1.11;81.24;101167.91;5032517;28;20399;-81
2021/12/21 06:33:20;;;;;;;21.33;9.88;;;;;;;-1.14;80.86;101169.03;5038493;28;20410;-82
2021/12/21 06:35:45;;;;;;;23.75;9.57;;;;;;;-1.19;80.83;101178.47;5047156;28;20407;-81
2021/12/21 06:38:11;;;;;;;20.17;8.63;;;;;;;-1.25;81.19;101187.06;5030034;28;20415;-83
2021/12/21 06:40:38;;;;;;;19.13;8.70;;;;;;;-1.39;81.87;101175.13;5046447;28;20815;-81
2021/12/21 06:43:04;;;;;;;18.40;9.85;;;;;;;-1.27;81.72;101176.56;5036880;28;20523;-82
2021/12/21 06:46:01;;;;;;;19.23;10.40;;;;;;;-1.34;81.00;101179.97;5041965;28;20493;-82
2021/12/21 06:51:16;;;;;;;22.33;9.23;;;;;;;-1.33;82.00;101184.31;5030771;28;20451;-82
2021/12/21 06:53:46;;;;;;;18.67;9.40;;;;;;;-1.29;81.43;101191.00;5039818;28;20785;-81
2021/12/21 06:56:12;;;;;;;19.90;9.50;;;;;;;-1.29;81.46;101194.50;5032756;28;20394;-82
2021/12/21 06:58:38;;;;;;;17.08;9.02;;;;;;;-1.25;81.01;101197.69;5039937;28;20395;-81
2021/12/21 07:01:05;;;;;;;18.83;9.37;;;;;;;-1.20;80.94;101190.09;5039787;28;20402;-81
2021/12/21 07:03:31;;;;;;;17.42;8.95;;;;;;;-1.36;81.08;101188.13;5038275;28;20403;-81
2021/12/21 07:06:01;;;;;;;15.10;8.30;;;;;;;-1.33;81.74;101197.59;5030295;28;20417;-81
2021/12/21 07:08:29;;;;;;;20.88;9.45;;;;;;;-1.45;81.19;101202.31;5036213;28;20447;-82
2021/12/21 07:19:11;;;;;;;18.98;8.75;;;;;;;-1.59;82.40;101203.66;5034740;28;20900;-83
2021/12/21 07:21:37;;;;;;;18.92;8.75;;;;;;;-1.55;82.53;101204.19;5035435;28;20407;-81
2021/12/21 07:24:02;;;;;;;21.63;10.80;;;;;;;-1.57;81.96;101198.16;5031732;28;20420;-78
2021/12/21 07:26:28;;;;;;;18.93;8.97;;;;;;;-1.55;82.25;101196.22;5043989;28;20835;-81
2021/12/21 07:28:53;;;;;;;20.00;9.13;;;;;;;-1.53;82.32;101196.88;5030029;28;20398;-81
2021/12/21 07:31:19;;;;;;;20.20;9.05;;;;;;;-1.58;82.10;101197.31;5045401;28;20399;-80
2021/12/21 07:33:44;;;;;;;14.90;9.30;;;;;;;-1.66;82.11;101191.94;5032060;28;20397;-81
2021/12/21 07:36:10;;;;;;;24.63;9.50;;;;;;;-1.68;82.73;101196.53;5041723;28;20399;-81
2021/12/21 07:38:35;;;;;;;19.57;9.30;;;;;;;-1.68;82.31;101193.88;5035106;28;20476;-81
2021/12/21 07:41:00;;;;;;;21.83;9.35;;;;;;;-1.70;82.68;101195.88;5044922;28;20414;-81
2021/12/21 07:43:27;;;;;;;18.33;8.68;;;;;;;-1.69;82.91;101202.03;5040031;28;20537;-82
2021/12/21 07:45:52;;;;;;;18.85;9.13;;;;;;;-1.64;82.62;101202.41;5046967;28;20439;-81
2021/12/21 07:48:18;;;;;;;16.23;9.20;;;;;;;-1.60;82.07;101201.13;5044173;28;20397;-81
2021/12/21 07:50:46;;;;;;;17.00;9.27;;;;;;;-1.52;82.73;101208.38;5043138;28;20558;-81
2021/12/21 07:53:12;;;;;;;18.27;9.63;;;;;;;-1.53;82.79;101212.84;5035565;28;20464;-81
2021/12/21 07:55:37;;;;;;;19.83;9.70;;;;;;;-1.42;81.94;101214.47;5040525;28;20399;-81
2021/12/21 07:58:03;;;;;;;22.67;9.23;;;;;;;-1.39;81.91;101207.03;5046682;28;20405;-81
2021/12/21 08:00:28;;;;;;;18.53;9.93;;;;;;;-1.55;82.28;101203.34;5043244;28;20412;-81
2021/12/21 08:02:54;;;;;;;17.07;10.27;;;;;;;-1.49;82.30;101205.41;5040997;28;20416;-81
2021/12/21 08:05:20;;;;;;;20.20;9.43;;;;;;;-1.46;82.32;101203.28;5050845;28;20399;-81
2021/12/21 08:07:54;;;;;;;21.73;9.98;;;;;;;-1.50;81.85;101199.25;5032552;28;20779;-81
2021/12/21 08:10:28;;;;;;;15.98;8.43;;;;;;;-1.51;82.66;101199.38;5036126;28;20991;-81
2021/12/21 08:12:55;;;;;;;18.77;9.20;;;;;;;-1.49;82.40;101200.09;5050742;28;20438;-82
2021/12/21 08:15:22;;;;;;;17.88;9.82;;;;;;;-1.48;82.17;101202.59;5036192;28;20406;-82
2021/12/21 08:17:48;;;;;;;18.83;9.90;;;;;;;-1.41;82.23;101200.16;5041051;28;20394;-81
2021/12/21 08:20:13;;;;;;;23.53;9.83;;;;;;;-1.36;82.08;101205.88;5041612;28;20749;-81
2021/12/21 08:22:38;;;;;;;21.80;9.97;;;;;;;-1.33;81.79;101209.09;5036872;28;20405;-81
2021/12/21 08:25:06;;;;;;;19.30;10.50;;;;;;;-1.20;81.66;101208.72;5033035;28;20724;-81
2021/12/21 08:27:31;;;;;;;21.65;9.23;;;;;;;-1.15;81.82;101203.75;5054380;28;20465;-81
2021/12/21 08:29:57;;;;;;;19.27;9.57;;;;;;;-0.98;81.46;101194.94;5034215;28;20431;-81
2021/12/21 08:32:22;;;;;;;18.37;9.80;;;;;;;-0.78;81.02;101199.13;5045927;28;20750;-80
2021/12/21 08:34:47;;;;;;;20.17;9.50;;;;;;;-0.79;80.81;101197.44;5037082;28;20637;-80
2021/12/21 08:37:13;;;;;;;15.63;9.20;;;;;;;-0.59;80.06;101198.94;5041540;28;20563;-80
2021/12/21 08:39:39;;;;;;;16.50;8.47;;;;;;;-0.56;80.20;101203.16;5051040;28;20399;-81
2021/12/21 08:42:07;;;;;;;18.90;8.43;;;;;;;-0.35;79.70;101203.63;5043435;28;20429;-81
2021/12/21 08:44:32;;;;;;;18.85;9.40;;;;;;;-0.03;78.59;101206.47;5038404;28;20402;-81
2021/12/21 08:46:58;;;;;;;16.13;8.68;;;;;;;0.39;77.40;101203.84;5045323;28;20409;-80
2021/12/21 08:49:25;;;;;;;17.35;9.55;;;;;;;0.65;75.64;101202.94;5041309;28;20420;-80
2021/12/21 08:51:51;;;;;;;22.20;9.15;;;;;;;0.48;75.88;101202.88;5042743;28;20405;-80
2021/12/21 08:54:16;;;;;;;17.73;8.93;;;;;;;0.15;76.69;101206.41;5035927;28;20889;-79
2021/12/21 08:56:44;;;;;;;16.67;8.02;;;;;;;0.09;77.43;101200.88;5036459;28;20417;-79
2021/12/21 08:59:10;;;;;;;20.48;11.05;;;;;;;0.45;76.14;101207.69;5034507;28;20422;-79
2021/12/21 09:01:35;;;;;;;17.25;8.65;;;;;;;0.28;76.96;101206.78;5037582;28;20454;-80
2021/12/21 09:04:01;;;;;;;18.43;8.97;;;;;;;0.26;77.08;101205.28;5042433;28;20586;-80
2021/12/21 09:06:26;;;;;;;18.03;8.50;;;;;;;0.72;76.42;101214.63;5050596;28;20396;-80
2021/12/21 09:08:51;;;;;;;14.20;8.83;;;;;;;1.28;74.43;101214.72;5048419;28;21003;-79
2021/12/21 09:11:16;;;;;;;19.67;9.23;;;;;;;1.18;73.68;101211.38;5056520;28;20401;-79
2021/12/21 09:13:42;;;;;;;17.65;8.40;;;;;;;1.01;74.50;101213.19;5038387;28;20440;-79
2021/12/21 09:16:07;;;;;;;17.00;8.40;;;;;;;0.68;75.26;101207.94;5046484;28;20426;-79
2021/12/21 09:18:32;;;;;;;17.67;8.93;;;;;;;0.58;75.58;101202.75;5033277;28;20465;-80
2021/12/21 09:20:58;;;;;;;13.13;7.77;;;;;;;0.56;76.22;101201.25;5044006;28;20397;-80
2021/12/21 09:23:24;;;;;;;13.88;8.23;;;;;;;0.51;76.82;101202.56;5045094;28;20404;-79
2021/12/21 09:25:49;;;;;;;15.85;8.27;;;;;;;0.56;76.69;101206.56;5051620;28;20399;-80
2021/12/21 09:28:15;;;;;;;16.37;8.37;;;;;;;0.51;76.81;101199.88;5041618;28;20497;-80
2021/12/21 09:30:40;;;;;;;14.77;8.73;;;;;;;0.61;76.44;101201.56;5042807;28;20415;-80
2021/12/21 09:33:06;;;;;;;20.02;9.07;;;;;;;0.64;76.49;101206.59;5039042;28;20402;-79
2021/12/21 09:35:31;;;;;;;15.80;8.93;;;;;;;0.63;76.50;101212.91;5035792;28;20409;-79
2021/12/21 09:37:56;;;;;;;19.63;8.83;;;;;;;0.61;76.31;101209.56;5039355;28;20774;-80
2021/12/21 09:40:28;;;;;;;16.17;8.53;;;;;;;0.89;75.71;101211.00;5050486;28;20415;-80
2021/12/21 09:42:54;;;;;;;12.18;7.32;;;;;;;1.05;74.93;101208.34;5033363;28;20529;-80
2021/12/21 09:45:20;;;;;;;16.27;8.40;;;;;;;1.43;75.24;101210.38;5048567;28;20915;-79
2021/12/21 09:47:46;;;;;;;14.87;7.40;;;;;;;1.89;73.14;101213.31;5048651;28;20403;-80
2021/12/21 09:50:14;;;;;;;11.97;7.10;;;;;;;2.17;72.17;101209.25;5043955;28;20490;-80
2021/12/21 09:52:39;;;;;;;14.02;7.07;;;;;;;2.38;71.08;101206.81;5032791;28;20406;-80
2021/12/21 09:55:08;;;;;;;10.60;6.15;;;;;;;2.58;70.01;101204.53;5033356;28;20407;-79
2021/12/21 09:57:35;;;;;;;11.75;6.50;;;;;;;3.00;69.12;101191.56;5034540;28;20414;-79
2021/12/21 10:00:00;;;;;;;13.05;6.55;;;;;;;3.06;68.10;101193.53;5041748;28;20393;-79
2021/12/21 10:02:26;;;;;;;11.38;6.95;;;;;;;3.10;67.95;101191.34;5038008;28;20431;-79
2021/12/21 10:04:56;;;;;;;13.32;6.50;;;;;;;2.92;68.23;101194.31;5031925;28;20421;-79
2021/12/21 10:07:23;;;;;;;11.95;7.03;;;;;;;2.79;68.56;101191.38;5031835;28;20478;-79
2021/12/21 10:09:52;;;;;;;11.80;7.30;;;;;;;2.39;69.72;101191.59;5031629;28;20949;-79
2021/12/21 10:12:41;;;;;;;14.10;6.90;;;;;;;1.94;70.84;101193.06;5050238;28;20407;-79
2021/12/21 10:15:07;;;;;;;16.02;6.68;;;;;;;1.90;71.30;101186.44;5035805;28;20407;-79
2021/12/21 10:17:35;;;;;;;15.07;7.35;;;;;;;1.77;71.92;101186.13;5031889;28;20488;-79
2021/12/21 10:20:03;;;;;;;15.10;6.75;;;;;;;1.60;72.03;101186.31;5046930;28;20854;-79
2021/12/21 10:22:28;;;;;;;13.20;7.18;;;;;;;1.90;71.50;101177.56;5036666;28;20494;-79
2021/12/21 10:24:53;;;;;;;14.90;7.57;;;;;;;2.37;70.99;101181.06;5035989;28;20391;-79
2021/12/21 10:27:22;;;;;;;12.27;6.47;;;;;;;2.44;69.84;101178.53;5038403;28;20455;-79
2021/12/21 10:29:50;;;;;;;14.63;7.80;;;;;;;2.12;70.23;101168.81;5050097;28;20509;-79
2021/12/21 10:32:21;;;;;;;16.08;6.90;;;;;;;1.82;71.25;101175.75;5048812;28;20788;-79
2021/12/21 10:34:51;;;;;;;13.00;6.83;;;;;;;1.68;72.02;101181.78;5048357;28;20394;-79
2021/12/21 10:37:27;;;;;;;10.30;6.88;;;;;;;1.57;72.05;101176.81;5045501;28;20439;-79
2021/12/21 10:40:09;;;;;;;16.42;7.43;;;;;;;1.48;72.96;101175.16;5047443;28;20416;-79
2021/12/21 10:42:54;;;;;;;11.75;6.70;;;;;;;1.37;73.05;101170.97;5049722;28;20424;-79
2021/12/21 10:45:35;;;;;;;12.77;6.70;;;;;;;1.39;73.50;101168.97;5044205;28;20402;-79
2021/12/21 10:48:04;;;;;;;12.45;6.63;;;;;;;1.43;73.50;101169.47;5046818;28;20413;-78
2021/12/21 10:50:33;;;;;;;12.88;6.85;;;;;;;1.45;73.59;101172.78;5045242;28;20444;-80
2021/12/21 10:53:00;;;;;;;13.65;6.72;;;;;;;1.49;73.27;101166.13;5038085;28;20426;-79
2021/12/21 10:55:27;;;;;;;12.10;5.93;;;;;;;1.61;73.09;101163.94;5034675;28;20836;-79
2021/12/21 10:58:13;;;;;;;15.38;5.93;;;;;;;1.58;72.67;101158.94;5036164;28;20481;-79
2021/12/21 11:00:44;;;;;;;10.75;6.15;;;;;;;1.55;72.85;101157.41;5031502;28;20478;-79
2021/12/21 11:03:10;;;;;;;9.80;6.15;;;;;;;1.61;73.33;101155.94;5048577;28;20409;-79
2021/12/21 11:05:36;;;;;;;13.10;6.80;;;;;;;1.58;73.11;101152.56;5042651;28;20428;-79
2021/12/21 11:08:06;;;;;;;8.82;5.60;;;;;;;1.61;72.73;101159.44;5037566;28;20882;-79
2021/12/21 11:10:35;;;;;;;10.00;5.80;;;;;;;1.58;72.65;101149.91;5047938;28;20407;-81
2021/12/21 11:13:10;;;;;;;14.30;5.87;;;;;;;1.64;72.43;101144.91;5052462;28;20413;-81
2021/12/21 11:15:38;;;;;;;11.63;5.72;;;;;;;1.66;71.86;101154.41;5053241;28;20401;-81
2021/12/21 11:18:18;;;;;;;10.10;5.53;;;;;;;1.64;71.67;101145.75;5055814;28;20402;-79
2021/12/21 11:20:48;;;;;;;11.13;5.60;;;;;;;1.67;71.64;101147.22;5050138;28;20434;-79
2021/12/21 11:23:14;;;;;;;10.37;5.63;;;;;;;1.72;71.70;101148.38;5053270;28;20918;-79
2021/12/21 11:25:42;;;;;;;10.63;5.63;;;;;;;1.72;71.59;101142.19;5041082;28;20508;-80
2021/12/21 11:28:08;;;;;;;10.17;5.07;;;;;;;1.72;70.96;101135.00;5050224;28;20527;-79
2021/12/21 11:30:34;;;;;;;9.63;5.75;;;;;;;1.71;70.90;101130.69;5048546;28;20478;-79
2021/12/21 11:33:03;;;;;;;8.03;4.50;;;;;;;1.75;70.89;101131.16;5036508;28;20520;-80
2021/12/21 11:38:01;;;;;;;6.68;4.68;;;;;;;1.77;70.62;101126.50;5041430;28;20415;-79
2021/12/21 11:40:30;;;;;;;11.40;5.40;;;;;;;1.73;70.65;101112.66;5046984;28;20397;-80
2021/12/21 11:43:14;;;;;;;11.45;6.15;;;;;;;1.78;70.85;101112.13;5043229;28;20464;-79
2021/12/21 11:45:58;;;;;;;9.60;5.40;;;;;;;1.79;70.61;101113.78;5050197;28;20880;-81
2021/12/21 11:48:37;;;;;;;8.32;5.25;;;;;;;1.81;70.49;101114.47;5053428;28;20404;-78
2021/12/21 11:51:06;;;;;;;10.60;5.97;;;;;;;1.85;70.40;101105.91;5053875;28;20413;-79
2021/12/21 11:53:32;;;;;;;9.73;5.50;;;;;;;1.90;70.31;101110.75;5048882;28;20449;-79
2021/12/21 11:55:57;;;;;;;10.57;5.82;;;;;;;1.91;70.26;101112.44;5044100;28;20892;-79
2021/12/21 11:58:35;;;;;;;7.38;5.18;;;;;;;1.91;70.24;101113.22;5067390;28;20440;-79
2021/12/21 12:01:03;;;;;;;9.75;5.57;;;;;;;1.97;70.24;101117.91;5047258;28;20489;-80
2021/12/21 12:03:33;;;;;;;12.13;5.60;;;;;;;1.97;69.98;101109.06;5036992;28;20426;-79
2021/12/21 12:06:07;;;;;;;7.72;5.05;;;;;;;1.96;70.28;101118.06;5047107;28;20397;-79
2021/12/21 12:08:52;;;;;;;10.00;5.35;;;;;;;2.01;70.43;101118.38;5047861;28;20900;-79
2021/12/21 12:11:36;;;;;;;11.10;5.57;;;;;;;2.02;69.85;101110.19;5045358;28;20488;-79
2021/12/21 12:14:10;;;;;;;11.55;7.05;;;;;;;2.04;70.32;101107.38;5042934;28;20438;-80
2021/12/21 12:16:56;;;;;;;12.32;5.90;;;;;;;2.08;69.90;101111.31;5044925;28;20399;-78
2021/12/21 12:19:27;;;;;;;9.55;5.75;;;;;;;2.06;69.49;101116.88;5054433;28;20398;-76
2021/12/21 12:21:55;;;;;;;10.87;5.83;;;;;;;2.08;69.70;101114.84;5045134;28;20891;-77
2021/12/21 12:24:22;;;;;;;12.75;6.70;;;;;;;2.11;69.62;101116.31;5044051;28;20438;-76
2021/12/21 12:27:02;;;;;;;10.77;6.27;;;;;;;2.10;69.79;101109.34;5050707;28;20408;-77
2021/12/21 12:29:28;;;;;;;9.63;5.38;;;;;;;2.12;69.89;101109.97;5043107;28;20407;-77
2021/12/21 12:32:06;;;;;;;10.95;4.80;;;;;;;2.13;69.74;101110.81;5039737;28;20887;-77
2021/12/21 12:34:35;;;;;;;9.57;5.55;;;;;;;2.14;69.67;101110.63;5046597;28;20407;-76
2021/12/21 12:37:17;;;;;;;7.65;5.10;;;;;;;2.17;69.82;101101.44;5052006;28;20722;-76
2021/12/21 12:39:46;;;;;;;8.45;4.97;;;;;;;2.19;69.52;101107.44;5045914;28;20497;-76
2021/12/21 12:42:22;;;;;;;10.37;5.13;;;;;;;2.19;69.52;101104.78;5048256;28;20925;-76
2021/12/21 12:44:55;;;;;;;11.25;4.97;;;;;;;2.19;69.39;101104.78;5044275;28;20405;-76
2021/12/21 12:47:25;;;;;;;7.47;4.72;;;;;;;2.21;68.97;101097.38;5048017;28;20483;-77
2021/12/21 12:49:54;;;;;;;10.30;5.07;;;;;;;2.19;69.36;101092.22;5046347;28;20403;-77
2021/12/21 12:52:24;;;;;;;12.45;5.70;;;;;;;2.22;69.79;101083.88;5038892;28;20407;-76
2021/12/21 12:55:01;;;;;;;9.52;5.70;;;;;;;2.21;69.46;101087.53;5035235;28;20411;-77
2021/12/21 12:57:37;;;;;;;6.93;4.40;;;;;;;2.22;68.97;101077.69;5043565;28;20800;-77
2021/12/21 13:00:16;;;;;;;7.57;5.05;;;;;;;2.24;69.44;101081.03;5039882;28;20416;-77
2021/12/21 13:02:56;;;;;;;12.30;4.72;;;;;;;2.27;69.26;101078.84;5040984;28;20424;-76
2021/12/21 13:05:34;;;;;;;6.55;4.72;;;;;;;2.30;69.21;101080.31;5041423;28;20433;-76
2021/12/21 13:08:22;;;;;;;7.30;5.00;;;;;;;2.27;69.05;101083.34;5034304;28;20442;-77
2021/12/21 13:10:51;;;;;;;7.70;4.68;;;;;;;2.28;68.72;101079.63;5035540;28;20399;-77
2021/12/21 13:13:18;;;;;;;5.80;4.40;;;;;;;2.29;68.53;101078.66;5031643;28;20426;-77
2021/12/21 13:15:52;;;;;;;10.02;4.97;;;;;;;2.37;68.16;101084.75;5063044;28;20392;-76